Time;durP1;ratioP1;P1;durP2;ratioP2;P2;SDS_P1;SDS_P2;PMS_P1;PMS_P2;Temp;Humidity;BMP_temperature;BMP_pressure;BME280_temperature;BME280_humidity;BME280_pressure;Samples;Min_cycle;Max_cycle;Signal;HPM_P1;HPM_P2
2023/11/06 00:00:17;;;;;;;;;;;;;;;10.82;100.00;98639.31;5024849;28;19921;-68
2023/11/06 00:02:43;;;;;;;;;;;;;;;10.49;100.00;98667.53;5029643;28;20337;-69
2023/11/06 00:05:08;;;;;;;;;;;;;;;10.56;100.00;98687.34;5026992;28;19917;-69
2023/11/06 00:07:34;;;;;;;;;;;;;;;10.78;100.00;98688.78;5029637;28;20411;-69
2023/11/06 00:09:59;;;;;;;;;;;;;;;10.95;100.00;98690.44;5029916;28;20399;-69
2023/11/06 00:12:26;;;;;;;;;;;;;;;11.16;100.00;98669.00;5030191;28;20007;-69
2023/11/06 00:14:52;;;;;;;;;;;;;;;11.17;100.00;98665.03;5029130;28;20379;-69
2023/11/06 00:17:17;;;;;;;;;;;;;;;11.24;100.00;98676.44;5028036;28;19917;-69
2023/11/06 00:19:43;;;;;;;;;;;;;;;11.40;100.00;98676.44;5029257;28;20012;-70
2023/11/06 00:22:09;;;;;;;;;;;;;;;11.47;100.00;98675.81;5031309;28;19920;-69
2023/11/06 00:24:34;;;;;;;;;;;;;;;11.53;100.00;98674.38;5031244;28;19914;-69
2023/11/06 00:26:59;;;;;;;;;;;;;;;11.57;100.00;98669.66;5031982;28;20022;-69
2023/11/06 00:29:25;;;;;;;;;;;;;;;11.63;100.00;98678.59;5035031;28;19913;-69
2023/11/06 00:31:50;;;;;;;;;;;;;;;11.64;100.00;98667.06;5029321;28;20320;-69
2023/11/06 00:34:15;;;;;;;;;;;;;;;11.61;100.00;98659.38;5030394;28;20419;-69
2023/11/06 00:36:41;;;;;;;;;;;;;;;11.62;100.00;98652.59;5032699;28;19952;-69
2023/11/06 00:39:07;;;;;;;;;;;;;;;11.60;100.00;98649.34;5032371;28;19918;-69
2023/11/06 00:41:32;;;;;;;;;;;;;;;11.49;100.00;98653.88;5032500;28;19924;-69
2023/11/06 00:43:58;;;;;;;;;;;;;;;11.46;100.00;98651.78;5033878;28;20346;-69
2023/11/06 00:46:23;;;;;;;;;;;;;;;11.45;100.00;98667.78;5034822;28;19921;-69
2023/11/06 00:48:49;;;;;;;;;;;;;;;11.55;100.00;98662.81;5032162;28;19913;-68
2023/11/06 00:51:14;;;;;;;;;;;;;;;11.54;100.00;98655.59;5018163;28;19924;-69
2023/11/06 00:53:39;;;;;;;;;;;;;;;11.62;100.00;98658.19;5034509;28;19920;-69
2023/11/06 00:56:05;;;;;;;;;;;;;;;11.64;100.00;98683.84;5034274;28;20414;-69
2023/11/06 00:58:30;;;;;;;;;;;;;;;11.75;100.00;98686.13;5034469;28;19983;-69
2023/11/06 01:00:56;;;;;;;;;;;;;;;11.90;100.00;98684.50;5033275;28;19920;-69
2023/11/06 01:03:21;;;;;;;;;;;;;;;12.02;100.00;98687.22;5026594;28;19984;-70
2023/11/06 01:05:46;;;;;;;;;;;;;;;12.13;100.00;98679.03;5027230;28;19917;-70
2023/11/06 01:08:12;;;;;;;;;;;;;;;12.15;100.00;98676.69;5014557;28;19913;-69
2023/11/06 01:10:37;;;;;;;;;;;;;;;12.14;100.00;98671.47;5032928;28;19967;-69
2023/11/06 01:13:03;;;;;;;;;;;;;;;12.26;100.00;98674.16;5034353;28;19963;-69
2023/11/06 01:15:28;;;;;;;;;;;;;;;12.30;100.00;98686.25;5032584;28;19913;-69
2023/11/06 01:17:54;;;;;;;;;;;;;;;12.15;100.00;98673.09;5032972;28;19943;-69
2023/11/06 01:20:21;;;;;;;;;;;;;;;12.16;100.00;98681.09;5030922;28;20066;-69
2023/11/06 01:22:46;;;;;;;;;;;;;;;12.27;100.00;98672.97;5031756;28;19917;-69
2023/11/06 01:25:11;;;;;;;;;;;;;;;12.25;100.00;98671.69;5030671;28;19917;-69
2023/11/06 01:27:36;;;;;;;;;;;;;;;11.79;100.00;98673.81;5033990;28;19917;-68
2023/11/06 01:30:03;;;;;;;;;;;;;;;12.02;100.00;98680.78;5033952;28;20004;-68
2023/11/06 01:32:28;;;;;;;;;;;;;;;12.18;100.00;98678.75;5031281;28;19913;-69
2023/11/06 01:34:53;;;;;;;;;;;;;;;12.23;100.00;98676.84;5031568;28;19928;-69
2023/11/06 01:37:19;;;;;;;;;;;;;;;12.31;100.00;98678.66;5029293;28;19920;-69
2023/11/06 01:39:44;;;;;;;;;;;;;;;12.24;100.00;98692.50;5031282;28;19978;-68
2023/11/06 01:42:10;;;;;;;;;;;;;;;12.24;100.00;98684.09;5027444;28;19957;-69
2023/11/06 01:44:37;;;;;;;;;;;;;;;12.34;100.00;98677.91;5032838;28;19918;-69
2023/11/06 01:47:02;;;;;;;;;;;;;;;12.42;100.00;98685.28;5031059;28;19921;-69
2023/11/06 01:49:28;;;;;;;;;;;;;;;12.28;100.00;98688.59;5033545;28;19928;-69
2023/11/06 01:51:53;;;;;;;;;;;;;;;12.34;100.00;98680.72;5032409;28;19943;-69
2023/11/06 01:54:19;;;;;;;;;;;;;;;12.35;100.00;98683.13;5033131;28;19936;-69
2023/11/06 01:56:44;;;;;;;;;;;;;;;12.51;100.00;98687.91;5029869;28;19921;-69
2023/11/06 01:59:10;;;;;;;;;;;;;;;12.54;100.00;98686.34;5013835;28;20366;-69
2023/11/06 02:01:37;;;;;;;;;;;;;;;12.47;100.00;98681.38;5015967;28;19925;-69
2023/11/06 02:04:06;;;;;;;;;;;;;;;12.54;99.62;98689.97;5031767;28;20260;-69
2023/11/06 02:06:32;;;;;;;;;;;;;;;12.49;100.00;98696.69;5029784;28;19929;-69
2023/11/06 02:09:00;;;;;;;;;;;;;;;12.68;100.00;98692.28;5031295;28;19998;-69
2023/11/06 02:11:25;;;;;;;;;;;;;;;12.84;100.00;98705.41;5032373;28;19917;-69
2023/11/06 02:13:51;;;;;;;;;;;;;;;12.87;100.00;98707.47;5021372;28;19917;-69
2023/11/06 02:16:16;;;;;;;;;;;;;;;12.71;100.00;98711.19;5033010;28;19919;-69
2023/11/06 02:18:41;;;;;;;;;;;;;;;12.63;100.00;98710.22;5033066;28;19920;-69
2023/11/06 02:21:07;;;;;;;;;;;;;;;12.50;100.00;98706.72;5031675;28;20368;-70
2023/11/06 02:23:33;;;;;;;;;;;;;;;12.38;100.00;98714.47;5029286;28;19975;-69
2023/11/06 02:25:58;;;;;;;;;;;;;;;12.54;100.00;98714.38;5031903;28;19917;-70
2023/11/06 02:28:24;;;;;;;;;;;;;;;12.40;100.00;98718.50;5020093;28;19927;-69
2023/11/06 02:30:52;;;;;;;;;;;;;;;12.33;100.00;98726.75;5012972;28;19971;-69
2023/11/06 02:33:20;;;;;;;;;;;;;;;12.28;100.00;98724.22;5013000;28;19913;-69
2023/11/06 02:35:45;;;;;;;;;;;;;;;12.17;100.00;98724.78;5029550;28;19921;-69
2023/11/06 02:38:11;;;;;;;;;;;;;;;12.09;100.00;98725.81;5031146;28;19978;-69
2023/11/06 02:40:36;;;;;;;;;;;;;;;12.07;100.00;98719.75;5028754;28;19917;-69
2023/11/06 02:43:03;;;;;;;;;;;;;;;12.17;100.00;98727.59;5032607;28;19913;-69
2023/11/06 02:45:29;;;;;;;;;;;;;;;12.30;100.00;98735.88;5027117;28;19949;-69
2023/11/06 02:47:55;;;;;;;;;;;;;;;12.29;100.00;98740.69;5012770;28;19921;-69
2023/11/06 02:50:20;;;;;;;;;;;;;;;12.19;100.00;98738.44;5012389;28;19917;-69
2023/11/06 02:52:46;;;;;;;;;;;;;;;12.10;100.00;98730.22;5011492;28;19914;-70
2023/11/06 02:55:11;;;;;;;;;;;;;;;12.06;100.00;98732.13;5027078;28;20016;-69
2023/11/06 02:57:36;;;;;;;;;;;;;;;12.01;100.00;98736.00;5032413;28;19914;-69
2023/11/06 03:00:06;;;;;;;;;;;;;;;12.03;100.00;98741.25;5031671;28;20004;-70
2023/11/06 03:02:32;;;;;;;;;;;;;;;11.90;100.00;98746.13;5022201;28;19924;-70
2023/11/06 03:04:57;;;;;;;;;;;;;;;11.93;100.00;98751.81;5028567;28;20370;-69
2023/11/06 03:07:23;;;;;;;;;;;;;;;11.99;100.00;98757.94;5032033;28;19917;-69
2023/11/06 03:09:48;;;;;;;;;;;;;;;11.86;100.00;98751.66;5032170;28;19917;-69
2023/11/06 03:12:13;;;;;;;;;;;;;;;11.94;100.00;98758.25;5031834;28;20004;-69
2023/11/06 03:14:39;;;;;;;;;;;;;;;11.86;100.00;98757.25;5031930;28;20347;-69
2023/11/06 03:17:05;;;;;;;;;;;;;;;12.00;100.00;98758.78;5029481;28;19914;-69
2023/11/06 03:19:30;;;;;;;;;;;;;;;12.25;100.00;98767.03;5030696;28;19956;-69
2023/11/06 03:21:55;;;;;;;;;;;;;;;12.35;100.00;98770.06;5031885;28;19920;-69
2023/11/06 03:24:21;;;;;;;;;;;;;;;12.41;100.00;98773.41;5031651;28;20293;-69
2023/11/06 03:26:46;;;;;;;;;;;;;;;12.44;100.00;98780.28;5030482;28;19921;-69
2023/11/06 03:29:11;;;;;;;;;;;;;;;12.39;100.00;98784.19;5031870;28;19913;-69
2023/11/06 03:31:37;;;;;;;;;;;;;;;12.50;100.00;98785.25;5028652;28;20408;-69
2023/11/06 03:34:03;;;;;;;;;;;;;;;12.41;100.00;98792.25;5030977;28;19923;-69
2023/11/06 03:36:28;;;;;;;;;;;;;;;12.33;100.00;98803.28;5031021;28;20392;-69
2023/11/06 03:38:54;;;;;;;;;;;;;;;12.41;100.00;98811.88;5030524;28;19929;-69
2023/11/06 03:41:19;;;;;;;;;;;;;;;12.46;100.00;98818.03;5030419;28;19913;-70
2023/11/06 03:43:48;;;;;;;;;;;;;;;12.56;100.00;98822.25;5031611;28;20388;-69
2023/11/06 03:46:14;;;;;;;;;;;;;;;12.45;100.00;98830.41;5029427;28;19928;-70
2023/11/06 03:48:39;;;;;;;;;;;;;;;12.52;100.00;98834.56;5027181;28;19913;-69
2023/11/06 03:51:04;;;;;;;;;;;;;;;12.54;100.00;98837.81;5011945;28;20388;-69
2023/11/06 03:53:30;;;;;;;;;;;;;;;12.55;100.00;98847.84;5025833;28;19967;-69
2023/11/06 03:55:55;;;;;;;;;;;;;;;12.13;100.00;98852.84;5031390;28;19983;-69
2023/11/06 03:58:21;;;;;;;;;;;;;;;12.34;100.00;98848.97;5031438;28;19923;-69
2023/11/06 04:00:46;;;;;;;;;;;;;;;12.13;100.00;98849.25;5030991;28;19917;-69
2023/11/06 04:03:12;;;;;;;;;;;;;;;12.31;100.00;98839.28;5013175;28;19914;-69
2023/11/06 04:05:37;;;;;;;;;;;;;;;12.43;100.00;98837.56;5031672;28;20419;-69
2023/11/06 04:08:02;;;;;;;;;;;;;;;12.21;100.00;98862.25;5020843;28;19921;-69
2023/11/06 04:10:28;;;;;;;;;;;;;;;12.42;100.00;98852.75;5015796;28;19920;-70
2023/11/06 04:12:53;;;;;;;;;;;;;;;12.34;100.00;98860.97;5033099;28;20407;-70
2023/11/06 04:15:19;;;;;;;;;;;;;;;12.44;100.00;98859.66;5035176;28;19991;-69
2023/11/06 04:17:44;;;;;;;;;;;;;;;12.20;100.00;98885.84;5035344;28;19917;-69
2023/11/06 04:20:10;;;;;;;;;;;;;;;11.62;100.00;98892.66;5034029;28;19994;-69
2023/11/06 04:22:36;;;;;;;;;;;;;;;11.84;100.00;98882.88;5029944;28;19917;-69
2023/11/06 04:25:02;;;;;;;;;;;;;;;11.97;100.00;98894.84;5028348;28;19967;-69
2023/11/06 04:27:28;;;;;;;;;;;;;;;11.54;100.00;98910.44;5031243;28;19986;-69
2023/11/06 04:29:53;;;;;;;;;;;;;;;11.74;100.00;98900.22;5033464;28;19952;-69
2023/11/06 04:32:18;;;;;;;;;;;;;;;11.77;100.00;98908.72;5029201;28;19924;-69
2023/11/06 04:34:44;;;;;;;;;;;;;;;11.58;100.00;98909.34;5031431;28;19928;-69
2023/11/06 04:37:12;;;;;;;;;;;;;;;11.72;100.00;98902.56;5030889;28;19917;-69
2023/11/06 04:39:38;;;;;;;;;;;;;;;11.64;100.00;98915.53;5031911;28;19917;-69
2023/11/06 04:42:03;;;;;;;;;;;;;;;11.58;100.00;98914.16;5027424;28;19914;-69
2023/11/06 04:44:28;;;;;;;;;;;;;;;11.82;100.00;98913.22;5017413;28;19925;-69
2023/11/06 04:46:54;;;;;;;;;;;;;;;11.81;100.00;98920.00;5034111;28;20028;-69
2023/11/06 04:49:19;;;;;;;;;;;;;;;11.92;100.00;98918.31;5033115;28;19917;-69
2023/11/06 04:51:44;;;;;;;;;;;;;;;12.08;100.00;98934.41;5034336;28;19917;-70
2023/11/06 04:54:10;;;;;;;;;;;;;;;12.19;100.00;98941.13;5034723;28;20361;-69
2023/11/06 04:56:40;;;;;;;;;;;;;;;12.05;100.00;98938.75;5024054;28;19921;-69
2023/11/06 04:59:05;;;;;;;;;;;;;;;11.93;100.00;98947.19;5031132;28;19921;-68
2023/11/06 05:01:31;;;;;;;;;;;;;;;12.15;100.00;98953.41;5023671;28;20004;-69
2023/11/06 05:03:56;;;;;;;;;;;;;;;12.23;100.00;98949.63;5030346;28;19917;-69
2023/11/06 05:06:21;;;;;;;;;;;;;;;12.32;100.00;98953.06;5031082;28;20399;-68
2023/11/06 05:08:47;;;;;;;;;;;;;;;12.40;100.00;98961.69;5020146;28;19917;-70
2023/11/06 05:11:12;;;;;;;;;;;;;;;12.51;100.00;98965.59;5032666;28;19972;-69
2023/11/06 05:13:38;;;;;;;;;;;;;;;12.51;100.00;98971.22;5031194;28;19917;-68
2023/11/06 05:16:04;;;;;;;;;;;;;;;12.40;100.00;98987.72;5031008;28;20288;-68
2023/11/06 05:18:29;;;;;;;;;;;;;;;12.13;100.00;99007.03;5031743;28;20039;-68
2023/11/06 05:20:55;;;;;;;;;;;;;;;11.70;100.00;99002.94;5032643;28;20319;-68
2023/11/06 05:23:20;;;;;;;;;;;;;;;12.11;100.00;99009.38;5031094;28;19936;-69
2023/11/06 05:25:46;;;;;;;;;;;;;;;12.15;100.00;99015.09;5030397;28;20362;-70
2023/11/06 05:28:11;;;;;;;;;;;;;;;12.30;100.00;99008.72;5031006;28;19921;-69
2023/11/06 05:30:36;;;;;;;;;;;;;;;12.34;100.00;99020.03;5031882;28;19917;-68
2023/11/06 05:33:02;;;;;;;;;;;;;;;12.29;100.00;99028.69;5029413;28;19983;-68
2023/11/06 05:35:28;;;;;;;;;;;;;;;12.48;100.00;99039.22;5014604;28;20299;-68
2023/11/06 05:37:54;;;;;;;;;;;;;;;12.19;100.00;99039.25;5018961;28;19917;-68
2023/11/06 05:40:20;;;;;;;;;;;;;;;12.28;100.00;99041.91;5027697;28;19966;-68
2023/11/06 05:42:45;;;;;;;;;;;;;;;12.46;100.00;99059.22;5021885;28;19921;-68
2023/11/06 05:45:10;;;;;;;;;;;;;;;12.30;100.00;99058.34;5025346;28;19920;-68
2023/11/06 05:47:36;;;;;;;;;;;;;;;12.38;100.00;99060.19;5026588;28;19921;-68
2023/11/06 05:50:03;;;;;;;;;;;;;;;12.58;100.00;99071.56;5024725;28;19925;-69
2023/11/06 05:52:28;;;;;;;;;;;;;;;12.69;100.00;99069.88;5027164;28;19924;-68
2023/11/06 05:54:54;;;;;;;;;;;;;;;12.77;100.00;99071.69;5030844;28;20327;-68
2023/11/06 05:57:19;;;;;;;;;;;;;;;12.64;100.00;99067.31;5025119;28;19929;-68
2023/11/06 05:59:45;;;;;;;;;;;;;;;12.53;100.00;99074.63;5026885;28;19917;-70
2023/11/06 06:02:10;;;;;;;;;;;;;;;12.26;100.00;99082.69;5029216;28;19917;-69
2023/11/06 06:04:36;;;;;;;;;;;;;;;12.69;100.00;99088.69;5013374;28;20012;-70
2023/11/06 06:07:01;;;;;;;;;;;;;;;12.94;100.00;99095.00;5012160;28;19918;-70
2023/11/06 06:09:26;;;;;;;;;;;;;;;13.09;100.00;99092.56;5011994;28;20399;-71
2023/11/06 06:11:52;;;;;;;;;;;;;;;13.14;100.00;99090.28;5013511;28;19918;-69
2023/11/06 06:14:17;;;;;;;;;;;;;;;13.37;100.00;99095.28;5026349;28;19914;-69
2023/11/06 06:16:44;;;;;;;;;;;;;;;13.44;100.00;99100.28;5013497;28;19918;-69
2023/11/06 06:19:10;;;;;;;;;;;;;;;13.51;100.00;99111.69;5013332;28;19920;-69
2023/11/06 06:21:35;;;;;;;;;;;;;;;13.58;100.00;99119.50;5013349;28;19913;-70
2023/11/06 06:24:01;;;;;;;;;;;;;;;13.64;100.00;99120.84;5013554;28;19963;-69
2023/11/06 06:26:28;;;;;;;;;;;;;;;13.71;100.00;99125.81;5012603;28;19917;-69
2023/11/06 06:28:54;;;;;;;;;;;;;;;14.00;100.00;99126.50;5026665;28;20012;-67
2023/11/06 06:31:19;;;;;;;;;;;;;;;14.23;100.00;99132.22;5032922;28;19967;-69
2023/11/06 06:33:45;;;;;;;;;;;;;;;14.24;100.00;99141.47;5021151;28;19913;-74
2023/11/06 06:36:11;;;;;;;;;;;;;;;14.35;100.00;99145.31;5024835;28;19917;-69
2023/11/06 06:38:36;;;;;;;;;;;;;;;14.40;100.00;99149.84;5024475;28;19913;-69
2023/11/06 06:41:02;;;;;;;;;;;;;;;14.52;99.86;99152.53;5026003;28;20312;-69
2023/11/06 06:43:28;;;;;;;;;;;;;;;14.62;98.92;99145.50;5028536;28;20026;-67
2023/11/06 06:45:54;;;;;;;;;;;;;;;14.68;98.59;99149.63;5024824;28;19913;-68
2023/11/06 06:48:20;;;;;;;;;;;;;;;14.68;97.74;99158.09;5027221;28;19932;-68
2023/11/06 06:50:45;;;;;;;;;;;;;;;14.81;97.62;99158.78;5027702;28;20006;-68
2023/11/06 06:53:10;;;;;;;;;;;;;;;14.78;96.05;99170.81;5025710;28;19971;-68
2023/11/06 06:55:36;;;;;;;;;;;;;;;14.87;96.33;99173.38;5024064;28;20396;-68
2023/11/06 06:58:04;;;;;;;;;;;;;;;14.94;95.32;99172.72;5025862;28;19980;-67
2023/11/06 07:00:29;;;;;;;;;;;;;;;14.91;93.71;99179.88;5027108;28;19917;-67
2023/11/06 07:02:55;;;;;;;;;;;;;;;15.04;93.44;99174.09;5028467;28;19994;-71
2023/11/06 07:05:20;;;;;;;;;;;;;;;15.27;93.34;99176.97;5024855;28;19917;-68
2023/11/06 07:07:46;;;;;;;;;;;;;;;15.38;91.56;99163.84;5030963;28;19928;-70
2023/11/06 07:10:11;;;;;;;;;;;;;;;15.57;90.60;99177.09;5029576;28;19964;-71
2023/11/06 07:12:36;;;;;;;;;;;;;;;15.77;89.37;99184.66;5029492;28;20312;-71
2023/11/06 07:15:02;;;;;;;;;;;;;;;15.92;87.84;99191.34;5029185;28;19927;-70
2023/11/06 07:17:27;;;;;;;;;;;;;;;16.04;86.80;99193.19;5028271;28;19948;-69
2023/11/06 07:19:52;;;;;;;;;;;;;;;16.20;85.77;99195.84;5026332;28;20277;-72
2023/11/06 07:22:18;;;;;;;;;;;;;;;16.18;86.95;99196.22;5029059;28;19917;-72
2023/11/06 07:24:43;;;;;;;;;;;;;;;15.82;88.57;99187.97;5026174;28;19924;-72
2023/11/06 07:27:08;;;;;;;;;;;;;;;14.94;95.06;99184.78;5029065;28;19928;-70
2023/11/06 07:29:34;;;;;;;;;;;;;;;15.57;94.89;99187.53;5026823;28;20025;-72
2023/11/06 07:31:59;;;;;;;;;;;;;;;15.28;93.73;99192.69;5029197;28;19917;-74
2023/11/06 07:34:24;;;;;;;;;;;;;;;15.36;93.83;99200.06;5029229;28;19925;-72
2023/11/06 07:36:50;;;;;;;;;;;;;;;15.78;91.85;99197.56;5027152;28;19925;-71
2023/11/06 07:39:15;;;;;;;;;;;;;;;15.54;89.19;99194.75;5029730;28;19917;-72
2023/11/06 07:41:41;;;;;;;;;;;;;;;15.63;89.72;99202.13;5029696;28;19918;-71
2023/11/06 07:44:08;;;;;;;;;;;;;;;16.08;87.85;99211.78;5029626;28;19948;-74
2023/11/06 07:46:33;;;;;;;;;;;;;;;16.20;87.11;99215.59;5029753;28;19921;-72
2023/11/06 07:48:58;;;;;;;;;;;;;;;15.68;86.81;99215.91;5027556;28;19975;-73
2023/11/06 07:51:24;;;;;;;;;;;;;;;15.79;87.41;99210.47;5028828;28;20463;-75
2023/11/06 07:53:50;;;;;;;;;;;;;;;15.54;87.57;99206.00;5031310;28;19990;-76
2023/11/06 07:56:18;;;;;;;;;;;;;;;15.55;88.01;99207.63;5026746;28;19922;-77
2023/11/06 07:58:43;;;;;;;;;;;;;;;15.75;88.96;99204.75;5025563;28;20371;-74
2023/11/06 08:01:08;;;;;;;;;;;;;;;15.89;90.48;99203.38;5031771;28;19920;-73
2023/11/06 08:03:34;;;;;;;;;;;;;;;15.47;90.22;99207.91;5029780;28;19928;-72
2023/11/06 08:05:59;;;;;;;;;;;;;;;15.81;90.82;99208.91;5030560;28;19917;-72
2023/11/06 08:08:24;;;;;;;;;;;;;;;15.86;89.70;99210.56;5026463;28;19921;-73
2023/11/06 08:10:49;;;;;;;;;;;;;;;16.25;90.10;99203.97;5025604;28;19967;-73
2023/11/06 08:13:16;;;;;;;;;;;;;;;16.39;87.50;99214.66;5028531;28;19917;-74
2023/11/06 08:15:42;;;;;;;;;;;;;;;16.21;88.03;99218.00;5029569;28;19917;-72
2023/11/06 08:18:07;;;;;;;;;;;;;;;16.36;89.18;99212.59;5029680;28;20414;-76
2023/11/06 08:20:32;;;;;;;;;;;;;;;16.30;89.43;99216.94;5029252;28;19917;-76
2023/11/06 08:22:58;;;;;;;;;;;;;;;16.58;87.34;99222.19;5028715;28;20426;-75
2023/11/06 08:25:25;;;;;;;;;;;;;;;16.59;84.76;99218.16;5027642;28;19921;-76
2023/11/06 08:27:52;;;;;;;;;;;;;;;16.67;82.63;99208.59;5029145;28;19921;-71
2023/11/06 08:30:19;;;;;;;;;;;;;;;16.72;82.80;99218.75;5029011;28;19960;-79
2023/11/06 08:32:44;;;;;;;;;;;;;;;16.97;81.67;99213.41;5025072;28;19932;-80
2023/11/06 08:35:09;;;;;;;;;;;;;;;16.94;80.50;99222.66;5027036;28;19925;-80
2023/11/06 08:37:34;;;;;;;;;;;;;;;17.17;81.32;99230.22;5026817;28;19928;-80
2023/11/06 08:40:00;;;;;;;;;;;;;;;17.13;80.15;99226.53;5028676;28;20015;-79
2023/11/06 08:42:25;;;;;;;;;;;;;;;17.14;81.54;99233.81;5022574;28;19949;-79
2023/11/06 08:44:51;;;;;;;;;;;;;;;17.37;80.60;99224.38;5027191;28;20391;-71
2023/11/06 08:47:16;;;;;;;;;;;;;;;17.50;80.09;99233.41;5026053;28;20383;-73
2023/11/06 08:49:42;;;;;;;;;;;;;;;17.62;78.96;99221.00;5029806;28;19968;-73
2023/11/06 08:52:07;;;;;;;;;;;;;;;17.89;79.35;99229.31;5032555;28;19975;-73
2023/11/06 08:54:34;;;;;;;;;;;;;;;18.21;78.02;99223.13;5031104;28;20007;-73
2023/11/06 08:56:59;;;;;;;;;;;;;;;18.44;76.22;99227.72;5032695;28;19927;-72
2023/11/06 08:59:25;;;;;;;;;;;;;;;18.24;76.49;99225.97;5032992;28;19921;-69
2023/11/06 09:01:51;;;;;;;;;;;;;;;18.56;76.99;99221.72;5031155;28;20390;-74
2023/11/06 09:04:17;;;;;;;;;;;;;;;18.20;76.77;99227.16;5031967;28;19917;-76
2023/11/06 09:06:42;;;;;;;;;;;;;;;18.22;75.80;99227.56;5033217;28;19921;-72
2023/11/06 09:09:10;;;;;;;;;;;;;;;18.02;77.37;99227.81;5030983;28;19920;-74
2023/11/06 09:11:36;;;;;;;;;;;;;;;18.48;76.08;99222.91;5030933;28;19917;-73
2023/11/06 09:14:03;;;;;;;;;;;;;;;18.62;76.59;99225.81;5031845;28;19975;-74
2023/11/06 09:16:31;;;;;;;;;;;;;;;18.34;76.94;99227.28;5033534;28;19917;-76
2023/11/06 09:18:56;;;;;;;;;;;;;;;18.32;77.32;99224.00;5031032;28;20406;-76
2023/11/06 09:21:22;;;;;;;;;;;;;;;18.47;77.82;99229.78;5033008;28;19921;-77
2023/11/06 09:23:47;;;;;;;;;;;;;;;18.52;77.03;99221.72;5025288;28;19925;-74
2023/11/06 09:26:13;;;;;;;;;;;;;;;18.54;76.80;99218.47;5033998;28;19944;-78
2023/11/06 09:28:38;;;;;;;;;;;;;;;18.73;76.20;99220.19;5031200;28;19941;-78
2023/11/06 09:31:04;;;;;;;;;;;;;;;18.60;75.85;99216.91;5031155;28;19921;-78
2023/11/06 09:33:29;;;;;;;;;;;;;;;18.96;74.66;99209.81;5034637;28;19920;-79
2023/11/06 09:35:54;;;;;;;;;;;;;;;19.20;72.76;99209.09;5031164;28;19927;-79
2023/11/06 09:38:20;;;;;;;;;;;;;;;19.33;71.95;99201.03;5031544;28;19959;-78
2023/11/06 09:40:45;;;;;;;;;;;;;;;19.63;70.45;99199.88;5031905;28;19917;-78
2023/11/06 09:43:11;;;;;;;;;;;;;;;19.62;68.64;99201.09;5036426;28;20311;-78
2023/11/06 09:45:36;;;;;;;;;;;;;;;19.72;69.89;99199.47;5033704;28;19968;-78
2023/11/06 09:48:05;;;;;;;;;;;;;;;19.73;70.68;99201.09;5033432;28;20319;-78
2023/11/06 09:50:31;;;;;;;;;;;;;;;20.00;69.37;99202.75;5033798;28;20443;-78
2023/11/06 09:52:56;;;;;;;;;;;;;;;19.85;67.68;99190.56;5031354;28;20017;-78
2023/11/06 09:55:22;;;;;;;;;;;;;;;20.24;68.31;99189.72;5033339;28;20320;-78
2023/11/06 09:57:48;;;;;;;;;;;;;;;20.58;68.16;99191.28;5026873;28;19939;-78
2023/11/06 10:00:16;;;;;;;;;;;;;;;20.88;67.24;99189.97;5030950;28;20003;-80
2023/11/06 10:02:41;;;;;;;;;;;;;;;20.75;65.58;99181.06;5026565;28;19925;-76
2023/11/06 10:05:14;;;;;;;;;;;;;;;21.02;63.59;99172.84;5034589;28;19924;-75
2023/11/06 10:07:40;;;;;;;;;;;;;;;21.09;63.01;99179.75;5032032;28;19975;-74
2023/11/06 10:10:24;;;;;;;;;;;;;;;21.22;62.68;99180.06;5026197;28;20384;-75
2023/11/06 10:13:03;;;;;;;;;;;;;;;21.22;62.24;99174.38;5026558;28;19966;-74
2023/11/06 10:15:28;;;;;;;;;;;;;;;21.43;61.16;99171.41;5022773;28;20335;-74
2023/11/06 10:17:54;;;;;;;;;;;;;;;21.51;60.96;99172.16;5028211;28;19925;-74
2023/11/06 10:20:25;;;;;;;;;;;;;;;21.63;58.61;99179.41;5030735;28;20404;-75
2023/11/06 10:22:53;;;;;;;;;;;;;;;21.07;55.14;99170.81;5029678;28;19914;-74
2023/11/06 10:25:23;;;;;;;;;;;;;;;21.28;55.33;99161.34;5030923;28;19936;-74
2023/11/06 10:27:48;;;;;;;;;;;;;;;21.52;54.62;99164.44;5028483;28;19921;-74
2023/11/06 10:30:14;;;;;;;;;;;;;;;21.44;54.86;99170.16;5031031;28;19994;-71
2023/11/06 10:32:39;;;;;;;;;;;;;;;21.43;55.16;99171.41;5030922;28;19921;-72
2023/11/06 10:35:15;;;;;;;;;;;;;;;21.27;53.71;99173.97;5029029;28;19952;-71
2023/11/06 10:37:44;;;;;;;;;;;;;;;21.74;55.63;99179.34;5026912;28;20050;-72
2023/11/06 10:40:13;;;;;;;;;;;;;;;21.90;53.53;99170.25;5025341;28;19925;-70
2023/11/06 10:42:44;;;;;;;;;;;;;;;21.60;53.57;99177.41;5024157;28;19957;-72
2023/11/06 10:45:11;;;;;;;;;;;;;;;21.53;51.99;99175.38;5023003;28;20319;-73
2023/11/06 10:47:40;;;;;;;;;;;;;;;21.56;53.25;99168.06;5024021;28;19925;-73
2023/11/06 10:50:10;;;;;;;;;;;;;;;21.29;52.84;99163.75;5024963;28;19948;-74
2023/11/06 10:52:38;;;;;;;;;;;;;;;21.31;52.57;99151.97;5021280;28;20384;-70
2023/11/06 10:55:07;;;;;;;;;;;;;;;21.52;54.10;99162.41;5022114;28;19963;-69
2023/11/06 10:57:36;;;;;;;;;;;;;;;21.57;51.96;99161.97;5024758;28;20016;-71
2023/11/06 11:00:07;;;;;;;;;;;;;;;21.66;52.48;99160.66;5025129;28;20011;-70
2023/11/06 11:02:33;;;;;;;;;;;;;;;21.89;52.05;99165.81;5028605;28;19917;-70
2023/11/06 11:04:58;;;;;;;;;;;;;;;22.05;51.15;99162.41;5030498;28;20300;-70
2023/11/06 11:07:24;;;;;;;;;;;;;;;22.24;50.81;99161.00;5027659;28;19932;-70
2023/11/06 11:09:50;;;;;;;;;;;;;;;21.89;50.54;99160.09;5028402;28;20280;-70
2023/11/06 11:12:16;;;;;;;;;;;;;;;21.80;51.45;99160.59;5024262;28;19917;-70
2023/11/06 11:14:41;;;;;;;;;;;;;;;22.07;51.91;99165.63;5030090;28;20296;-70
2023/11/06 11:17:07;;;;;;;;;;;;;;;22.40;50.83;99162.44;5027908;28;20012;-70
2023/11/06 11:19:33;;;;;;;;;;;;;;;22.32;50.31;99155.19;5030200;28;20042;-70
2023/11/06 11:22:09;;;;;;;;;;;;;;;22.49;51.47;99162.78;5028223;28;19932;-70
2023/11/06 11:24:50;;;;;;;;;;;;;;;22.48;50.70;99160.31;5021985;28;19967;-70
2023/11/06 11:27:16;;;;;;;;;;;;;;;22.65;49.60;99156.50;5028156;28;19928;-71
2023/11/06 11:29:50;;;;;;;;;;;;;;;22.80;50.62;99154.25;5025126;28;20011;-70
2023/11/06 11:32:16;;;;;;;;;;;;;;;22.86;50.57;99160.31;5027079;28;19920;-70
2023/11/06 11:34:41;;;;;;;;;;;;;;;22.92;50.42;99152.09;5027207;28;19996;-70
2023/11/06 11:37:25;;;;;;;;;;;;;;;22.48;49.42;99157.47;5040581;28;20371;-70
2023/11/06 11:39:51;;;;;;;;;;;;;;;22.28;50.60;99153.22;5031627;28;19952;-70
2023/11/06 11:42:17;;;;;;;;;;;;;;;22.67;51.46;99153.22;5030341;28;20012;-70
2023/11/06 11:44:59;;;;;;;;;;;;;;;22.84;49.44;99155.03;5029588;28;19963;-70
2023/11/06 11:47:25;;;;;;;;;;;;;;;23.04;49.76;99156.41;5029416;28;20027;-70
2023/11/06 11:49:51;;;;;;;;;;;;;;;23.23;48.72;99160.63;5026347;28;19917;-71
2023/11/06 11:52:23;;;;;;;;;;;;;;;23.29;48.10;99158.97;5015920;28;20439;-70
2023/11/06 11:54:48;;;;;;;;;;;;;;;23.42;48.37;99147.75;5024259;28;19921;-71
2023/11/06 11:57:14;;;;;;;;;;;;;;;23.48;48.69;99153.78;5030315;28;20410;-70
2023/11/06 11:59:46;;;;;;;;;;;;;;;23.56;48.06;99149.56;5029841;28;19940;-70
2023/11/06 12:02:27;;;;;;;;;;;;;;;23.67;47.16;99150.22;5042665;28;19922;-70
2023/11/06 12:04:55;;;;;;;;;;;;;;;23.44;47.18;99153.03;5022866;28;19961;-70
2023/11/06 12:07:21;;;;;;;;;;;;;;;23.27;46.61;99150.81;5029320;28;19921;-70
2023/11/06 12:09:50;;;;;;;;;;;;;;;23.54;46.83;99149.22;5028922;28;19917;-70
2023/11/06 12:12:23;;;;;;;;;;;;;;;23.79;45.60;99160.19;5027307;28;19945;-71
2023/11/06 12:14:49;;;;;;;;;;;;;;;23.89;43.80;99154.75;5023069;28;20039;-70
2023/11/06 12:17:38;;;;;;;;;;;;;;;24.00;45.13;99157.41;5023711;28;20412;-70
2023/11/06 12:20:09;;;;;;;;;;;;;;;23.97;45.57;99162.75;5028696;28;19971;-71
2023/11/06 12:22:43;;;;;;;;;;;;;;;23.89;46.29;99158.41;5028356;28;19925;-71
2023/11/06 12:25:09;;;;;;;;;;;;;;;23.93;47.15;99149.75;5030032;28;19949;-72
2023/11/06 12:27:35;;;;;;;;;;;;;;;23.80;45.00;99155.31;5031542;28;19971;-72
2023/11/06 12:30:07;;;;;;;;;;;;;;;23.73;46.53;99156.22;5032838;28;19929;-71
2023/11/06 12:32:36;;;;;;;;;;;;;;;23.77;45.54;99154.13;5031679;28;20395;-71
2023/11/06 12:35:05;;;;;;;;;;;;;;;23.86;44.29;99150.69;5032677;28;20407;-71